Time;durP1;ratioP1;P1;durP2;ratioP2;P2;SDS_P1;SDS_P2;PMS_P1;PMS_P2;Temp;Humidity;BMP_temperature;BMP_pressure;BME280_temperature;BME280_humidity;BME280_pressure;Samples;Min_cycle;Max_cycle;Signal;HPM_P1;HPM_P2
2023/03/01 00:02:13;;;;;;;18.98;16.50;;;3.70;99.90;;;;;;5033917;28;20029;-80
2023/03/01 00:04:39;;;;;;;18.48;15.95;;;3.80;99.90;;;;;;5015976;28;20029;-80
2023/03/01 00:07:04;;;;;;;17.60;15.00;;;3.70;99.90;;;;;;5033355;28;20034;-80
2023/03/01 00:09:30;;;;;;;23.15;17.70;;;3.70;99.90;;;;;;5033770;28;20104;-81
2023/03/01 00:11:55;;;;;;;18.98;16.83;;;3.40;99.90;;;;;;5033621;28;20021;-80
2023/03/01 00:14:21;;;;;;;25.25;18.50;;;3.50;99.90;;;;;;5033720;28;20033;-80
2023/03/01 00:16:47;;;;;;;20.08;16.30;;;3.70;99.90;;;;;;5033642;28;20029;-80
2023/03/01 00:19:15;;;;;;;21.90;17.25;;;3.60;99.90;;;;;;5033601;28;20499;-80
2023/03/01 00:21:41;;;;;;;19.23;16.48;;;3.60;99.90;;;;;;5033052;28;20114;-80
2023/03/01 00:24:07;;;;;;;20.58;16.95;;;3.60;99.90;;;;;;5015716;28;20485;-80
2023/03/01 00:26:33;;;;;;;20.15;15.63;;;3.80;99.90;;;;;;5033357;28;20038;-80
2023/03/01 00:28:59;;;;;;;20.05;16.30;;;3.60;99.90;;;;;;5033429;28;20025;-80
2023/03/01 00:31:29;;;;;;;21.42;16.40;;;3.40;99.90;;;;;;5033022;28;20030;-80
2023/03/01 00:33:56;;;;;;;19.17;15.93;;;3.30;99.90;;;;;;5033292;28;20026;-80
2023/03/01 00:36:24;;;;;;;23.83;18.00;;;3.60;99.90;;;;;;5032706;28;20052;-79
2023/03/01 00:38:50;;;;;;;19.70;16.33;;;3.40;99.90;;;;;;5033265;28;20032;-80
2023/03/01 00:41:18;;;;;;;18.55;15.65;;;3.40;99.90;;;;;;5033110;28;20453;-80
2023/03/01 00:43:44;;;;;;;21.80;17.52;;;3.20;99.90;;;;;;5033168;28;20029;-80
2023/03/01 00:46:18;;;;;;;27.48;19.33;;;3.70;99.90;;;;;;5033064;28;20033;-80
2023/03/01 00:48:44;;;;;;;20.23;16.63;;;3.60;99.90;;;;;;5033121;28;20045;-80
2023/03/01 00:51:15;;;;;;;21.80;17.33;;;3.10;99.90;;;;;;5033089;28;20477;-80
2023/03/01 00:53:42;;;;;;;22.73;16.65;;;3.00;99.90;;;;;;5032990;28;20544;-80
2023/03/01 00:56:09;;;;;;;20.90;16.63;;;3.30;99.90;;;;;;5029768;28;22213;-80
2023/03/01 00:58:35;;;;;;;20.70;17.20;;;3.20;99.90;;;;;;5013163;28;20037;-80
2023/03/01 01:01:16;;;;;;;21.80;16.85;;;3.40;99.90;;;;;;5013148;28;20026;-80
2023/03/01 01:03:47;;;;;;;20.10;16.88;;;3.00;99.90;;;;;;5012912;28;20026;-80
2023/03/01 01:06:18;;;;;;;20.00;16.77;;;2.80;99.90;;;;;;5012968;28;20398;-80
2023/03/01 01:08:44;;;;;;;18.88;16.65;;;3.50;99.90;;;;;;5013122;28;20030;-80
2023/03/01 01:11:11;;;;;;;21.73;16.88;;;2.90;99.90;;;;;;5012852;28;20034;-80
2023/03/01 01:13:37;;;;;;;20.35;16.42;;;3.00;99.90;;;;;;5012959;28;20079;-80
2023/03/01 01:16:04;;;;;;;21.63;16.92;;;2.80;99.90;;;;;;5013005;28;20022;-80
2023/03/01 01:18:29;;;;;;;19.38;16.42;;;3.00;99.90;;;;;;5012570;28;20101;-80
2023/03/01 01:20:55;;;;;;;19.52;16.30;;;3.20;99.90;;;;;;5012903;28;20101;-80
2023/03/01 01:23:21;;;;;;;19.63;16.65;;;2.90;99.90;;;;;;5012845;28;20034;-80
2023/03/01 01:25:46;;;;;;;19.58;16.77;;;2.50;99.90;;;;;;5012867;28;20034;-80
2023/03/01 01:28:12;;;;;;;19.85;16.98;;;2.80;99.90;;;;;;5012926;28;20057;-80
2023/03/01 01:30:38;;;;;;;18.65;16.25;;;2.80;99.90;;;;;;5012830;28;20037;-80
2023/03/01 01:33:04;;;;;;;20.50;16.70;;;2.70;99.90;;;;;;5012434;28;20103;-80
2023/03/01 01:35:30;;;;;;;20.20;16.98;;;3.00;99.90;;;;;;5012817;28;20030;-80
2023/03/01 01:37:56;;;;;;;20.90;17.05;;;3.40;99.90;;;;;;5012649;28;20386;-80
2023/03/01 01:40:21;;;;;;;21.48;16.48;;;3.30;99.90;;;;;;5012761;28;20037;-80
2023/03/01 01:42:47;;;;;;;19.80;17.10;;;2.80;99.90;;;;;;5012722;28;20045;-80
2023/03/01 01:45:34;;;;;;;21.02;17.45;;;3.30;99.90;;;;;;4999054;28;20058;-80
2023/03/01 01:48:16;;;;;;;19.38;16.25;;;2.80;99.90;;;;;;4998721;28;20026;-80
2023/03/01 01:50:44;;;;;;;20.50;17.17;;;2.60;99.90;;;;;;5016667;28;20030;-80
2023/03/01 01:53:14;;;;;;;20.42;16.38;;;2.60;99.90;;;;;;5016405;28;20054;-80
2023/03/01 01:55:44;;;;;;;20.95;16.83;;;2.90;99.90;;;;;;5016253;28;20076;-80
2023/03/01 01:58:13;;;;;;;21.50;16.98;;;3.40;99.90;;;;;;5035574;28;20410;-80
2023/03/01 02:00:39;;;;;;;19.60;16.50;;;3.20;99.90;;;;;;5035981;28;20037;-80
2023/03/01 02:03:10;;;;;;;20.98;17.27;;;3.10;99.90;;;;;;5035775;28;20034;-80
2023/03/01 02:05:47;;;;;;;20.77;16.65;;;2.70;99.90;;;;;;5035999;28;20041;-80
2023/03/01 02:08:15;;;;;;;21.23;16.30;;;2.40;99.90;;;;;;5035877;28;20033;-80
2023/03/01 02:10:42;;;;;;;21.30;16.83;;;3.20;99.90;;;;;;5035918;28;20032;-80
2023/03/01 02:13:07;;;;;;;23.05;17.30;;;3.10;99.90;;;;;;5035803;28;20022;-81
2023/03/01 02:15:35;;;;;;;21.95;16.60;;;2.70;99.90;;;;;;5035777;28;20022;-80
2023/03/01 02:18:02;;;;;;;20.48;17.10;;;3.20;99.90;;;;;;5035507;28;20049;-81
2023/03/01 02:20:52;;;;;;;20.77;16.98;;;2.90;99.90;;;;;;5035860;28;20056;-80
2023/03/01 02:23:18;;;;;;;20.33;16.38;;;2.50;99.90;;;;;;5035871;28;20426;-80
2023/03/01 02:25:56;;;;;;;23.17;16.98;;;2.50;99.90;;;;;;5035564;28;20030;-80
2023/03/01 02:28:36;;;;;;;21.27;17.52;;;2.90;99.90;;;;;;5035836;28;20028;-80
2023/03/01 02:33:49;;;;;;;21.48;17.65;;;2.30;99.90;;;;;;5035823;28;20430;-81
2023/03/01 02:36:44;;;;;;;22.05;16.65;;;2.30;99.90;;;;;;5035374;28;20025;-80
2023/03/01 02:39:16;;;;;;;19.80;16.67;;;2.30;99.90;;;;;;5029935;28;20526;-80
2023/03/01 02:41:47;;;;;;;20.30;16.77;;;2.60;99.90;;;;;;5035385;28;20062;-80
2023/03/01 02:44:13;;;;;;;20.23;17.00;;;3.00;99.90;;;;;;5035332;28;20080;-80
2023/03/01 02:46:55;;;;;;;21.52;16.85;;;2.60;99.90;;;;;;5034987;28;20164;-80
2023/03/01 02:49:24;;;;;;;21.50;17.77;;;2.30;99.90;;;;;;5035305;28;20025;-80
2023/03/01 02:52:11;;;;;;;25.27;18.10;;;2.20;99.90;;;;;;5017522;28;20025;-80
2023/03/01 02:54:59;;;;;;;21.15;16.17;;;2.30;99.90;;;;;;5034984;28;20385;-80
2023/03/01 02:57:27;;;;;;;20.25;16.73;;;2.00;99.90;;;;;;5014976;28;20057;-80
2023/03/01 02:59:54;;;;;;;22.63;17.35;;;2.30;99.90;;;;;;5014924;28;20057;-80
2023/03/01 03:02:35;;;;;;;23.27;17.77;;;2.70;99.90;;;;;;5015241;28;20034;-80
2023/03/01 03:05:12;;;;;;;24.50;18.80;;;2.40;99.90;;;;;;5015221;28;20045;-80
2023/03/01 03:07:40;;;;;;;22.17;17.65;;;2.70;99.90;;;;;;5015127;28;20058;-80
2023/03/01 03:10:09;;;;;;;23.35;17.42;;;2.20;99.90;;;;;;5015199;28;20150;-80
2023/03/01 03:12:34;;;;;;;20.73;17.00;;;2.20;99.90;;;;;;5014871;28;20029;-80
2023/03/01 03:15:00;;;;;;;21.40;17.23;;;2.20;99.90;;;;;;5014699;28;20026;-80
2023/03/01 03:17:26;;;;;;;20.88;16.92;;;2.20;99.90;;;;;;5015181;28;20026;-80
2023/03/01 03:19:51;;;;;;;21.80;18.08;;;2.80;99.90;;;;;;5014956;28;20035;-80
2023/03/01 03:22:17;;;;;;;21.75;17.45;;;2.80;99.90;;;;;;5014894;28;20030;-80
2023/03/01 03:24:42;;;;;;;21.52;16.55;;;2.20;99.90;;;;;;5014765;28;20097;-80
2023/03/01 03:27:08;;;;;;;21.23;17.27;;;2.30;99.90;;;;;;5014753;28;20084;-80
2023/03/01 03:29:34;;;;;;;21.52;18.48;;;2.40;99.90;;;;;;5014394;28;20056;-80
2023/03/01 03:31:59;;;;;;;22.00;17.42;;;2.20;99.90;;;;;;5014720;28;20046;-80
2023/03/01 03:34:25;;;;;;;21.98;17.23;;;2.40;99.90;;;;;;5014597;28;20565;-80
2023/03/01 03:36:59;;;;;;;22.08;17.23;;;2.60;99.90;;;;;;5014552;28;20048;-80
2023/03/01 03:39:26;;;;;;;22.38;17.33;;;2.50;99.90;;;;;;5014605;28;20405;-80
2023/03/01 03:41:52;;;;;;;24.23;17.90;;;1.80;99.90;;;;;;5014543;28;20105;-80
2023/03/01 03:44:18;;;;;;;21.67;17.40;;;2.00;99.90;;;;;;5014096;28;20037;-80
2023/03/01 03:46:44;;;;;;;22.55;17.00;;;2.10;99.90;;;;;;5014458;28;20034;-80
2023/03/01 03:49:09;;;;;;;22.38;17.60;;;2.50;99.90;;;;;;5014470;28;20033;-80
2023/03/01 03:51:35;;;;;;;24.45;18.85;;;2.10;99.90;;;;;;5014384;28;20033;-80
2023/03/01 03:54:00;;;;;;;21.95;18.33;;;2.50;99.90;;;;;;5014415;28;20084;-80
2023/03/01 03:56:26;;;;;;;23.63;17.48;;;2.10;99.90;;;;;;5019196;28;20052;-80
2023/03/01 03:58:52;;;;;;;22.08;17.77;;;2.70;99.90;;;;;;5033737;28;20600;-80
2023/03/01 04:01:18;;;;;;;22.00;17.30;;;2.10;99.90;;;;;;5016178;28;20033;-80
2023/03/01 04:03:46;;;;;;;20.27;17.40;;;2.30;99.90;;;;;;5033935;28;20025;-80
2023/03/01 04:06:14;;;;;;;21.95;17.67;;;2.40;99.90;;;;;;5033071;28;20065;-80
2023/03/01 04:08:40;;;;;;;23.05;17.90;;;2.90;99.90;;;;;;5033822;28;20056;-80
2023/03/01 04:13:53;;;;;;;21.98;17.92;;;2.20;99.90;;;;;;5033423;28;20037;-80
2023/03/01 04:16:19;;;;;;;24.38;18.05;;;2.30;99.90;;;;;;5033428;28;20022;-80
2023/03/01 04:18:45;;;;;;;23.48;18.15;;;2.00;99.90;;;;;;5033641;28;20033;-80
2023/03/01 04:21:11;;;;;;;23.70;18.42;;;2.60;99.90;;;;;;5033516;28;20026;-80
2023/03/01 04:23:38;;;;;;;23.55;18.63;;;2.40;99.90;;;;;;5033477;28;20117;-80
2023/03/01 04:26:04;;;;;;;22.75;18.73;;;1.80;99.90;;;;;;5033482;28;20037;-80
2023/03/01 04:28:35;;;;;;;23.80;18.90;;;2.30;99.90;;;;;;5033100;28;20037;-80
2023/03/01 04:31:12;;;;;;;23.90;18.20;;;1.80;99.90;;;;;;5033449;28;20053;-80
2023/03/01 04:33:40;;;;;;;22.63;18.00;;;2.40;99.90;;;;;;5033264;28;20588;-80
2023/03/01 04:36:08;;;;;;;23.27;18.02;;;1.80;99.90;;;;;;5033247;28;20076;-80
2023/03/01 04:38:34;;;;;;;21.92;17.40;;;1.80;99.90;;;;;;5033285;28;20029;-80
2023/03/01 04:41:00;;;;;;;23.48;18.10;;;2.00;99.90;;;;;;5032784;28;20398;-80
2023/03/01 04:43:26;;;;;;;22.83;18.00;;;2.30;99.90;;;;;;5033212;28;20017;-80
2023/03/01 04:45:51;;;;;;;24.23;19.08;;;2.30;99.90;;;;;;5033004;28;20033;-80
2023/03/01 04:48:17;;;;;;;25.13;18.45;;;2.60;99.90;;;;;;5033133;28;20056;-80
2023/03/01 04:50:42;;;;;;;23.33;18.70;;;2.50;99.90;;;;;;5033111;28;20502;-80
2023/03/01 04:53:08;;;;;;;24.40;18.50;;;2.20;99.90;;;;;;5015316;28;20112;-80
2023/03/01 04:55:33;;;;;;;22.75;18.80;;;2.00;99.90;;;;;;5032373;28;20037;-80
2023/03/01 04:57:59;;;;;;;22.95;17.88;;;1.80;99.90;;;;;;5014693;28;20041;-80
2023/03/01 05:00:25;;;;;;;24.30;19.27;;;2.10;99.90;;;;;;5013073;28;20034;-80
2023/03/01 05:02:54;;;;;;;22.15;19.15;;;1.70;99.90;;;;;;5013182;28;20026;-80
2023/03/01 05:05:34;;;;;;;23.08;18.02;;;2.20;99.90;;;;;;5013029;28;20514;-80
2023/03/01 05:08:04;;;;;;;23.05;18.50;;;1.80;99.90;;;;;;5012979;28;20029;-80
2023/03/01 05:10:31;;;;;;;22.58;18.65;;;2.30;99.90;;;;;;5012714;28;20065;-80
2023/03/01 05:12:57;;;;;;;24.40;19.00;;;2.20;99.90;;;;;;5012861;28;20030;-80
2023/03/01 05:15:27;;;;;;;25.65;19.80;;;1.80;99.90;;;;;;5012999;28;20038;-80
2023/03/01 05:17:54;;;;;;;22.90;18.48;;;1.70;99.90;;;;;;5012958;28;20031;-80
2023/03/01 05:20:22;;;;;;;27.17;20.00;;;2.40;99.90;;;;;;5012922;28;20145;-80
2023/03/01 05:22:49;;;;;;;26.75;19.60;;;1.90;99.90;;;;;;5012950;28;20014;-80
2023/03/01 05:25:15;;;;;;;28.38;20.95;;;2.00;99.90;;;;;;5012363;28;20029;-80
2023/03/01 05:27:40;;;;;;;25.80;19.33;;;2.00;99.90;;;;;;5012899;28;20517;-81
2023/03/01 05:30:14;;;;;;;24.70;19.00;;;1.90;99.90;;;;;;5012974;28;20504;-80
2023/03/01 05:32:44;;;;;;;24.63;19.75;;;1.90;99.90;;;;;;5012780;28;20081;-80
2023/03/01 05:35:14;;;;;;;24.50;19.77;;;1.80;99.90;;;;;;5012818;28;20040;-80
2023/03/01 05:37:46;;;;;;;24.88;19.85;;;1.60;99.90;;;;;;5012654;28;20022;-80
2023/03/01 05:40:17;;;;;;;25.38;19.27;;;2.50;99.90;;;;;;5012420;28;20030;-80
2023/03/01 05:42:48;;;;;;;25.63;19.55;;;1.90;99.90;;;;;;5012839;28;20500;-80
2023/03/01 05:45:16;;;;;;;28.20;20.52;;;1.80;99.90;;;;;;5012690;28;20060;-80
2023/03/01 05:47:43;;;;;;;28.35;20.90;;;2.00;99.90;;;;;;5012479;28;20486;-81
2023/03/01 05:50:20;;;;;;;26.65;20.60;;;2.60;99.90;;;;;;5012749;28;20383;-80
2023/03/01 05:52:48;;;;;;;28.77;21.33;;;2.20;99.90;;;;;;5012461;28;20064;-80
2023/03/01 05:55:15;;;;;;;27.55;20.15;;;2.10;99.90;;;;;;5012260;28;20026;-80
2023/03/01 05:57:41;;;;;;;24.13;18.48;;;2.10;99.90;;;;;;5027717;28;20441;-80
2023/03/01 06:00:08;;;;;;;25.20;19.17;;;2.50;99.90;;;;;;5014497;28;20021;-80
2023/03/01 06:02:33;;;;;;;25.42;19.98;;;1.80;99.90;;;;;;5032243;28;20117;-80
2023/03/01 06:04:59;;;;;;;25.35;19.30;;;2.20;99.90;;;;;;5032156;28;20104;-80
2023/03/01 06:07:24;;;;;;;26.80;21.42;;;2.40;99.90;;;;;;5032159;28;20025;-81
2023/03/01 06:09:50;;;;;;;26.05;19.55;;;1.60;99.90;;;;;;5031831;28;20057;-80
2023/03/01 06:12:16;;;;;;;27.52;19.73;;;1.60;99.90;;;;;;5031997;28;20017;-80
2023/03/01 06:14:41;;;;;;;24.58;19.30;;;1.90;99.90;;;;;;5032244;28;20037;-80
2023/03/01 06:17:07;;;;;;;27.00;20.65;;;1.90;99.90;;;;;;5032015;28;20025;-80
2023/03/01 06:19:32;;;;;;;25.23;19.92;;;1.80;99.90;;;;;;5032100;28;20474;-80
2023/03/01 06:21:58;;;;;;;25.27;20.17;;;2.40;99.90;;;;;;5032116;28;20022;-80
2023/03/01 06:24:23;;;;;;;25.88;20.80;;;1.90;99.90;;;;;;5031665;28;20038;-80
2023/03/01 06:26:49;;;;;;;26.27;20.40;;;1.50;99.90;;;;;;5031799;28;20044;-80
2023/03/01 06:29:15;;;;;;;27.50;20.83;;;1.80;99.90;;;;;;5032837;28;20371;-80
2023/03/01 06:31:40;;;;;;;26.33;20.20;;;2.20;99.90;;;;;;5035603;28;20026;-80
2023/03/01 06:34:06;;;;;;;29.85;23.80;;;2.20;99.90;;;;;;5035591;28;20033;-81
2023/03/01 06:36:31;;;;;;;26.65;20.35;;;2.30;99.90;;;;;;5035408;28;20454;-80
2023/03/01 06:38:57;;;;;;;29.88;21.10;;;1.70;99.90;;;;;;5035028;28;20100;-80
2023/03/01 06:41:23;;;;;;;28.00;21.08;;;1.70;99.90;;;;;;5035413;28;20034;-80
2023/03/01 06:43:48;;;;;;;28.05;20.40;;;1.50;99.90;;;;;;5035336;28;20033;-80
2023/03/01 06:46:14;;;;;;;30.15;21.38;;;2.00;99.90;;;;;;5035175;28;20037;-80
2023/03/01 06:48:39;;;;;;;28.15;20.90;;;1.90;99.90;;;;;;5035258;28;20030;-80
2023/03/01 06:51:05;;;;;;;28.98;21.50;;;2.30;99.90;;;;;;5035238;28;20509;-80
2023/03/01 06:53:31;;;;;;;27.50;19.88;;;2.60;99.90;;;;;;5034887;28;20513;-81
2023/03/01 06:55:57;;;;;;;26.90;20.58;;;2.50;99.90;;;;;;5033312;28;20524;-80
2023/03/01 06:58:23;;;;;;;31.95;21.40;;;2.80;99.90;;;;;;5015216;28;20041;-80
2023/03/01 07:00:49;;;;;;;27.45;20.73;;;2.30;99.90;;;;;;5015200;28;20022;-81
2023/03/01 07:03:15;;;;;;;28.05;19.98;;;1.90;99.90;;;;;;5015325;28;20523;-80
2023/03/01 07:05:40;;;;;;;28.65;20.88;;;1.80;99.90;;;;;;5015025;28;20030;-80
2023/03/01 07:08:06;;;;;;;27.08;20.90;;;2.10;99.90;;;;;;5014844;28;20026;-80
2023/03/01 07:10:32;;;;;;;26.48;20.83;;;1.70;99.90;;;;;;4997521;28;20032;-80
2023/03/01 07:12:58;;;;;;;27.63;21.40;;;2.00;99.90;;;;;;5014951;28;20032;-80
2023/03/01 07:15:25;;;;;;;26.80;20.38;;;1.90;99.90;;;;;;5015148;28;20060;-81
2023/03/01 07:17:51;;;;;;;32.45;22.65;;;2.00;99.90;;;;;;5014873;28;20417;-80
2023/03/01 07:20:25;;;;;;;29.77;21.73;;;2.90;99.90;;;;;;5014864;28;20030;-80
2023/03/01 07:22:51;;;;;;;28.77;21.83;;;2.30;99.90;;;;;;5014899;28;20104;-80
2023/03/01 07:25:17;;;;;;;27.88;20.60;;;2.10;99.90;;;;;;5014725;28;20041;-80
2023/03/01 07:27:43;;;;;;;26.98;21.52;;;2.20;99.90;;;;;;5014754;28;20093;-80
2023/03/01 07:30:09;;;;;;;26.92;21.35;;;2.50;99.90;;;;;;5014836;28;20022;-80
2023/03/01 07:32:35;;;;;;;25.83;20.80;;;2.00;99.90;;;;;;5014715;28;20021;-80
2023/03/01 07:35:01;;;;;;;29.70;22.10;;;2.30;99.90;;;;;;5014381;28;20026;-80
2023/03/01 07:37:26;;;;;;;27.17;21.23;;;2.30;99.90;;;;;;5014622;28;20145;-80
2023/03/01 07:39:52;;;;;;;29.10;22.88;;;2.40;99.90;;;;;;5014815;28;20389;-80
2023/03/01 07:42:18;;;;;;;31.88;22.05;;;2.30;99.90;;;;;;5013556;28;20033;-80
2023/03/01 07:44:43;;;;;;;29.08;22.02;;;2.00;99.90;;;;;;5014478;28;20026;-80
2023/03/01 07:47:09;;;;;;;34.08;23.05;;;2.40;99.90;;;;;;5014396;28;20521;-80
2023/03/01 07:49:35;;;;;;;27.17;21.17;;;2.40;99.90;;;;;;5014002;28;20065;-80
2023/03/01 07:52:00;;;;;;;29.25;22.42;;;2.20;99.90;;;;;;5014481;28;20030;-80
2023/03/01 07:54:26;;;;;;;29.48;21.83;;;2.10;99.90;;;;;;5014244;28;20077;-80
2023/03/01 07:56:52;;;;;;;29.65;22.88;;;2.20;99.90;;;;;;5022532;28;20107;-80
2023/03/01 07:59:17;;;;;;;31.63;21.95;;;2.20;99.90;;;;;;5034058;28;20068;-80
2023/03/01 08:01:43;;;;;;;28.42;22.10;;;2.20;99.90;;;;;;5033853;28;20021;-81
2023/03/01 08:04:09;;;;;;;28.48;22.05;;;2.70;99.90;;;;;;5033416;28;20030;-80
2023/03/01 08:06:35;;;;;;;27.83;21.45;;;3.00;99.90;;;;;;5033711;28;20048;-80
2023/03/01 08:09:01;;;;;;;28.02;21.10;;;2.60;99.90;;;;;;5033721;28;20022;-80
2023/03/01 08:11:30;;;;;;;29.70;22.20;;;2.10;99.90;;;;;;5033794;28;20041;-80
2023/03/01 08:13:56;;;;;;;29.45;22.38;;;1.80;99.90;;;;;;5033601;28;20560;-80
2023/03/01 08:16:22;;;;;;;31.02;22.80;;;2.80;99.90;;;;;;5033588;28;20022;-81
2023/03/01 08:18:47;;;;;;;27.95;21.83;;;2.50;99.90;;;;;;5033170;28;20037;-80
2023/03/01 08:21:15;;;;;;;28.95;21.77;;;3.10;99.90;;;;;;5033599;28;20053;-80
2023/03/01 08:23:42;;;;;;;28.83;22.27;;;2.00;99.90;;;;;;5033486;28;20414;-80
2023/03/01 08:26:10;;;;;;;29.52;22.23;;;2.40;99.90;;;;;;5015543;28;20036;-80
2023/03/01 08:28:36;;;;;;;28.00;21.98;;;2.40;99.90;;;;;;5033427;28;20045;-80
2023/03/01 08:31:02;;;;;;;31.42;22.20;;;2.10;99.90;;;;;;5033169;28;20052;-80
2023/03/01 08:33:28;;;;;;;28.73;22.02;;;2.80;99.90;;;;;;5033188;28;20087;-80
2023/03/01 08:36:02;;;;;;;28.55;22.52;;;2.20;99.90;;;;;;5033348;28;20018;-80
2023/03/01 08:38:28;;;;;;;30.10;23.55;;;2.30;99.90;;;;;;5033169;28;20057;-80
2023/03/01 08:40:54;;;;;;;33.25;23.17;;;2.20;99.90;;;;;;5033178;28;20056;-80
2023/03/01 08:43:19;;;;;;;30.58;23.38;;;2.20;99.90;;;;;;5033199;28;20112;-80
2023/03/01 08:45:45;;;;;;;27.70;21.95;;;2.70;99.90;;;;;;5032975;28;20033;-80
2023/03/01 08:48:10;;;;;;;30.85;22.33;;;3.40;99.90;;;;;;5032908;28;20022;-81
2023/03/01 08:50:36;;;;;;;33.03;23.00;;;2.80;99.90;;;;;;5032929;28;20489;-80
2023/03/01 08:53:01;;;;;;;31.48;22.75;;;2.40;99.90;;;;;;5032967;28;20032;-80
2023/03/01 08:55:27;;;;;;;32.42;23.40;;;2.50;99.90;;;;;;5032668;28;20378;-80
2023/03/01 08:57:53;;;;;;;34.08;22.38;;;2.70;99.90;;;;;;5015667;28;20042;-80
2023/03/01 09:00:19;;;;;;;32.67;23.60;;;2.50;99.90;;;;;;5013244;28;20072;-80
2023/03/01 09:02:44;;;;;;;29.63;22.80;;;2.50;99.90;;;;;;5012889;28;20092;-80
2023/03/01 09:05:10;;;;;;;31.48;23.90;;;2.80;99.90;;;;;;5013165;28;20490;-80
2023/03/01 09:07:35;;;;;;;31.75;23.38;;;2.40;99.90;;;;;;5013069;28;20090;-80
2023/03/01 09:10:01;;;;;;;29.38;21.98;;;3.30;99.90;;;;;;5013101;28;20037;-80
2023/03/01 09:12:26;;;;;;;30.70;23.23;;;3.20;99.90;;;;;;5012955;28;20076;-80
2023/03/01 09:14:52;;;;;;;31.17;23.02;;;2.90;99.90;;;;;;5012946;28;20026;-80
2023/03/01 09:17:18;;;;;;;31.77;22.35;;;3.60;99.90;;;;;;5012646;28;20395;-80
2023/03/01 09:19:43;;;;;;;31.17;23.08;;;3.40;99.90;;;;;;5012881;28;20029;-80
2023/03/01 09:22:09;;;;;;;31.17;23.83;;;3.30;99.90;;;;;;5013007;28;20026;-80
2023/03/01 09:24:34;;;;;;;28.88;23.83;;;3.00;99.90;;;;;;5012926;28;20573;-81
2023/03/01 09:27:01;;;;;;;30.50;22.63;;;3.40;99.90;;;;;;5012766;28;20042;-80
2023/03/01 09:29:26;;;;;;;29.02;22.45;;;3.20;99.90;;;;;;5012911;28;20089;-80
2023/03/01 09:31:54;;;;;;;30.15;23.95;;;3.30;99.90;;;;;;5012523;28;20037;-80
2023/03/01 09:34:23;;;;;;;32.83;24.00;;;2.70;99.90;;;;;;5012759;28;20054;-80
2023/03/01 09:36:49;;;;;;;29.80;23.48;;;2.40;99.90;;;;;;5012759;28;20029;-80
2023/03/01 09:39:14;;;;;;;32.10;23.23;;;2.30;99.90;;;;;;5012799;28;20113;-81
2023/03/01 09:41:54;;;;;;;32.28;24.17;;;2.80;99.90;;;;;;5012818;28;20105;-81
2023/03/01 09:44:57;;;;;;;29.42;23.17;;;3.00;99.90;;;;;;5012904;28;20589;-80
2023/03/01 09:47:29;;;;;;;29.60;22.50;;;2.80;99.90;;;;;;5012444;28;20117;-80
2023/03/01 09:50:12;;;;;;;29.38;23.85;;;3.10;99.90;;;;;;4994820;28;20371;-80
2023/03/01 09:52:56;;;;;;;30.33;23.13;;;2.90;99.90;;;;;;5012690;28;20030;-80
2023/03/01 09:55:42;;;;;;;32.97;23.77;;;3.10;99.90;;;;;;5012346;28;20029;-81
2023/03/01 09:58:36;;;;;;;36.10;25.15;;;3.20;99.90;;;;;;5031226;28;20037;-80
2023/03/01 10:01:32;;;;;;;33.70;24.30;;;3.10;99.90;;;;;;5031962;28;20056;-80
2023/03/01 10:04:48;;;;;;;34.45;24.30;;;3.00;99.90;;;;;;5032642;28;20474;-80
2023/03/01 10:07:38;;;;;;;30.63;23.50;;;3.10;99.90;;;;;;4974993;28;20515;-80
2023/03/01 10:10:14;;;;;;;29.73;23.55;;;3.30;99.90;;;;;;4975208;28;20037;-80
2023/03/01 10:12:42;;;;;;;27.88;22.83;;;3.20;99.90;;;;;;4975101;28;20122;-81
2023/03/01 10:15:17;;;;;;;30.58;24.33;;;2.90;99.90;;;;;;4974477;28;20039;-80
2023/03/01 10:17:57;;;;;;;30.23;23.58;;;3.00;99.90;;;;;;4975030;28;20031;-81
2023/03/01 10:20:26;;;;;;;30.10;24.23;;;3.00;99.90;;;;;;4974921;28;20087;-80
2023/03/01 10:22:55;;;;;;;30.45;24.00;;;3.30;99.90;;;;;;4974931;28;20031;-80
2023/03/01 10:25:38;;;;;;;29.92;24.13;;;3.20;99.90;;;;;;4974600;28;20060;-80
2023/03/01 10:28:54;;;;;;;31.45;24.33;;;3.30;99.90;;;;;;4974767;28;20507;-81
2023/03/01 10:31:37;;;;;;;31.45;24.42;;;3.30;99.90;;;;;;4936181;29;20535;-80
2023/03/01 10:34:08;;;;;;;32.85;23.67;;;3.80;99.90;;;;;;4936213;29;20485;-81
2023/03/01 10:36:34;;;;;;;32.97;24.83;;;3.60;99.90;;;;;;4936153;29;20132;-81
2023/03/01 10:39:10;;;;;;;29.63;24.73;;;3.80;99.90;;;;;;4936111;29;20034;-80
2023/03/01 10:42:00;;;;;;;31.00;24.70;;;3.90;99.90;;;;;;4980208;28;20484;-80
2023/03/01 10:44:45;;;;;;;32.33;25.00;;;3.70;99.90;;;;;;4992980;28;20042;-81
2023/03/01 10:47:25;;;;;;;29.65;23.88;;;3.50;99.90;;;;;;4993815;28;20534;-81
2023/03/01 10:49:59;;;;;;;31.48;23.17;;;3.90;99.90;;;;;;4977366;28;20088;-80
2023/03/01 10:52:36;;;;;;;30.42;23.65;;;4.00;99.90;;;;;;4993763;28;20049;-81
2023/03/01 10:55:37;;;;;;;30.15;24.02;;;4.20;99.90;;;;;;4993387;28;20037;-80
2023/03/01 10:58:14;;;;;;;30.80;24.42;;;4.10;99.90;;;;;;4974629;28;20109;-80
2023/03/01 11:01:19;;;;;;;31.85;24.90;;;3.50;99.90;;;;;;4974356;28;20037;-80
2023/03/01 11:03:45;;;;;;;31.15;23.88;;;3.60;99.90;;;;;;4966437;28;20118;-80
2023/03/01 11:06:13;;;;;;;32.92;25.13;;;3.80;99.90;;;;;;4987043;28;20125;-80
2023/03/01 11:08:44;;;;;;;31.35;24.02;;;4.10;99.90;;;;;;5015326;28;20030;-80
2023/03/01 11:11:32;;;;;;;30.83;23.42;;;4.30;99.90;;;;;;5015077;28;20057;-80
2023/03/01 11:14:31;;;;;;;31.80;25.13;;;3.80;99.90;;;;;;5014873;28;20029;-80
2023/03/01 11:17:15;;;;;;;31.50;24.58;;;4.00;99.90;;;;;;5007162;28;20080;-81
2023/03/01 11:19:40;;;;;;;30.55;24.65;;;4.00;99.90;;;;;;5014985;28;20034;-80
2023/03/01 11:22:16;;;;;;;30.20;24.42;;;4.40;99.90;;;;;;5015107;28;20537;-80
2023/03/01 11:24:49;;;;;;;30.20;24.40;;;4.20;99.90;;;;;;5015003;28;20022;-81
2023/03/01 11:27:34;;;;;;;34.08;24.98;;;4.10;99.90;;;;;;5014461;28;20084;-81
2023/03/01 11:30:12;;;;;;;29.65;24.02;;;4.00;99.90;;;;;;5014898;28;20026;-81
2023/03/01 11:33:07;;;;;;;30.95;25.02;;;4.30;99.90;;;;;;5014710;28;20029;-80
2023/03/01 11:35:37;;;;;;;29.40;24.15;;;5.00;99.90;;;;;;4973478;28;20066;-80
2023/03/01 11:38:21;;;;;;;29.33;24.33;;;4.80;99.90;;;;;;4973536;28;20403;-80
2023/03/01 11:40:54;;;;;;;30.75;24.63;;;4.80;99.90;;;;;;4973354;28;20102;-80
2023/03/01 11:43:28;;;;;;;32.30;26.23;;;4.40;99.90;;;;;;4973114;28;20534;-81
2023/03/01 11:46:14;;;;;;;33.85;27.23;;;5.00;99.90;;;;;;4973150;28;20415;-80
2023/03/01 11:48:51;;;;;;;31.25;25.42;;;4.60;99.90;;;;;;4973511;28;20046;-81
2023/03/01 11:51:35;;;;;;;34.45;25.75;;;4.90;99.90;;;;;;4973087;28;20022;-81
2023/03/01 11:54:13;;;;;;;30.77;25.33;;;5.20;99.90;;;;;;4973221;28;20487;-80
2023/03/01 11:56:43;;;;;;;32.10;25.35;;;5.10;99.90;;;;;;4979178;28;20046;-80
2023/03/01 11:59:17;;;;;;;34.30;26.40;;;5.10;99.90;;;;;;4992495;28;20041;-81
2023/03/01 12:01:51;;;;;;;30.42;25.90;;;4.70;99.90;;;;;;4992541;28;20045;-80
2023/03/01 12:04:30;;;;;;;32.97;25.48;;;4.90;99.90;;;;;;4992332;28;20502;-80
2023/03/01 12:06:57;;;;;;;32.22;25.90;;;4.90;99.90;;;;;;4992259;28;20395;-80
2023/03/01 12:09:23;;;;;;;32.53;26.23;;;4.60;99.90;;;;;;4992366;28;20075;-81
2023/03/01 12:12:46;;;;;;;34.63;26.23;;;4.30;99.90;;;;;;5010608;28;20109;-80
2023/03/01 12:15:36;;;;;;;34.70;27.20;;;4.30;99.90;;;;;;4972610;28;20420;-81
2023/03/01 12:18:25;;;;;;;32.67;26.10;;;4.80;99.90;;;;;;4972881;28;20027;-81
2023/03/01 12:21:38;;;;;;;29.45;25.38;;;4.80;99.90;;;;;;4934004;29;20057;-80
2023/03/01 12:24:28;;;;;;;40.90;29.42;;;5.00;99.90;;;;;;4858873;29;20514;-81
2023/03/01 12:27:22;;;;;;;33.03;27.17;;;5.10;99.90;;;;;;4858185;29;20561;-80
2023/03/01 12:30:18;;;;;;;40.30;33.08;;;5.20;99.90;;;;;;4859117;29;20033;-80
2023/03/01 12:33:02;;;;;;;105.65;59.53;;;4.80;99.90;;;;;;4858885;29;20650;-80
2023/03/01 12:36:02;;;;;;;57.30;38.55;;;4.70;99.90;;;;;;4859016;29;20116;-81
2023/03/01 12:38:45;;;;;;;63.90;43.38;;;4.60;99.90;;;;;;4858673;29;20435;-81
2023/03/01 12:41:26;;;;;;;52.78;36.70;;;4.60;99.90;;;;;;4858459;29;20068;-81
2023/03/01 12:44:13;;;;;;;35.10;28.15;;;4.70;99.90;;;;;;4858820;29;20514;-80
2023/03/01 12:47:04;;;;;;;33.83;26.70;;;5.30;99.90;;;;;;4887542;29;20445;-80
2023/03/01 12:49:51;;;;;;;31.98;27.10;;;5.00;99.90;;;;;;4895912;29;20398;-80
2023/03/01 12:52:29;;;;;;;57.65;38.47;;;4.90;99.90;;;;;;4895819;29;20434;-80
2023/03/01 12:54:58;;;;;;;48.33;33.70;;;5.20;99.90;;;;;;4895220;29;20482;-81
2023/03/01 12:57:40;;;;;;;45.42;33.47;;;5.10;99.90;;;;;;4893629;29;20048;-81
2023/03/01 13:00:31;;;;;;;34.95;26.50;;;5.30;99.90;;;;;;4946033;28;20061;-81
2023/03/01 13:03:15;;;;;;;36.13;27.58;;;5.40;99.90;;;;;;5013185;28;20022;-80